sensor_id;sensor_type;location;lat;lon;timestamp;pressure;altitude;pressure_sealevel;temperature;humidity
57248;BME280;55809;46.618;10.764;2022-09-29T00:01:14;91336.66;;;11.26;75.52
57248;BME280;55809;46.618;10.764;2022-09-29T00:03:51;91332.88;;;11.24;76.35
57248;BME280;55809;46.618;10.764;2022-09-29T00:06:26;91330.19;;;11.24;76.75
57248;BME280;55809;46.618;10.764;2022-09-29T00:09:08;91330.63;;;11.22;77.43
57248;BME280;55809;46.618;10.764;2022-09-29T00:11:56;91320.53;;;11.14;77.70
57248;BME280;55809;46.618;10.764;2022-09-29T00:14:29;91327.63;;;11.20;77.53
57248;BME280;55809;46.618;10.764;2022-09-29T00:17:05;91328.69;;;11.23;77.29
57248;BME280;55809;46.618;10.764;2022-09-29T00:19:35;91325.09;;;11.26;77.26
57248;BME280;55809;46.618;10.764;2022-09-29T00:22:08;91308.09;;;11.16;77.08
57248;BME280;55809;46.618;10.764;2022-09-29T00:24:38;91311.09;;;11.18;77.66
57248;BME280;55809;46.618;10.764;2022-09-29T00:27:20;91318.38;;;11.31;77.97
57248;BME280;55809;46.618;10.764;2022-09-29T00:30:01;91320.75;;;11.28;77.75
57248;BME280;55809;46.618;10.764;2022-09-29T00:32:31;91323.44;;;11.28;77.04
57248;BME280;55809;46.618;10.764;2022-09-29T00:34:59;91326.28;;;11.25;77.41
57248;BME280;55809;46.618;10.764;2022-09-29T00:37:29;91324.16;;;11.20;77.78
57248;BME280;55809;46.618;10.764;2022-09-29T00:39:56;91322.03;;;11.15;78.07
57248;BME280;55809;46.618;10.764;2022-09-29T00:42:24;91324.84;;;11.11;78.65
57248;BME280;55809;46.618;10.764;2022-09-29T00:44:58;91322.88;;;11.02;79.25
57248;BME280;55809;46.618;10.764;2022-09-29T00:47:27;91323.75;;;10.99;80.04
57248;BME280;55809;46.618;10.764;2022-09-29T00:50:01;91324.50;;;11.00;79.92
57248;BME280;55809;46.618;10.764;2022-09-29T00:52:33;91285.59;;;10.66;79.42
57248;BME280;55809;46.618;10.764;2022-09-29T00:55:04;91337.25;;;10.99;79.13
57248;BME280;55809;46.618;10.764;2022-09-29T00:57:41;91330.78;;;10.97;79.31
57248;BME280;55809;46.618;10.764;2022-09-29T01:00:13;91334.22;;;10.97;79.67
57248;BME280;55809;46.618;10.764;2022-09-29T01:02:43;91338.13;;;10.96;79.79
57248;BME280;55809;46.618;10.764;2022-09-29T01:05:13;91334.34;;;10.94;79.01
57248;BME280;55809;46.618;10.764;2022-09-29T01:07:42;91338.59;;;10.82;79.23
57248;BME280;55809;46.618;10.764;2022-09-29T01:10:12;91337.56;;;10.79;79.29
57248;BME280;55809;46.618;10.764;2022-09-29T01:12:43;91319.75;;;10.69;79.24
57248;BME280;55809;46.618;10.764;2022-09-29T01:15:12;91307.91;;;10.67;79.33
57248;BME280;55809;46.618;10.764;2022-09-29T01:17:40;91334.47;;;10.90;79.11
57248;BME280;55809;46.618;10.764;2022-09-29T01:20:11;91333.41;;;10.88;79.53
57248;BME280;55809;46.618;10.764;2022-09-29T01:23:08;91330.69;;;10.88;79.54
57248;BME280;55809;46.618;10.764;2022-09-29T01:29:05;91325.22;;;10.78;79.74
57248;BME280;55809;46.618;10.764;2022-09-29T01:31:44;91334.78;;;10.70;80.12
57248;BME280;55809;46.618;10.764;2022-09-29T01:34:37;91324.84;;;10.67;80.11
57248;BME280;55809;46.618;10.764;2022-09-29T01:37:10;91327.22;;;10.65;80.14
57248;BME280;55809;46.618;10.764;2022-09-29T01:39:47;91324.53;;;10.65;79.86
57248;BME280;55809;46.618;10.764;2022-09-29T01:42:21;91321.53;;;10.63;80.02
57248;BME280;55809;46.618;10.764;2022-09-29T01:44:49;91320.00;;;10.62;80.31
57248;BME280;55809;46.618;10.764;2022-09-29T01:47:22;91309.97;;;10.63;80.07
57248;BME280;55809;46.618;10.764;2022-09-29T01:49:56;91313.44;;;10.63;80.02
57248;BME280;55809;46.618;10.764;2022-09-29T01:52:28;91315.81;;;10.61;79.75
57248;BME280;55809;46.618;10.764;2022-09-29T01:54:59;91320.13;;;10.59;79.15
57248;BME280;55809;46.618;10.764;2022-09-29T01:57:31;91294.31;;;10.36;78.65
57248;BME280;55809;46.618;10.764;2022-09-29T02:00:04;91324.16;;;10.54;78.72
57248;BME280;55809;46.618;10.764;2022-09-29T02:02:38;91321.44;;;10.54;78.79
57248;BME280;55809;46.618;10.764;2022-09-29T02:05:09;91330.63;;;10.56;78.67
57248;BME280;55809;46.618;10.764;2022-09-29T02:07:42;91331.03;;;10.55;78.84
57248;BME280;55809;46.618;10.764;2022-09-29T02:10:21;91340.09;;;10.61;78.54
57248;BME280;55809;46.618;10.764;2022-09-29T02:12:53;91342.34;;;10.63;78.25
57248;BME280;55809;46.618;10.764;2022-09-29T02:15:42;91349.69;;;10.62;78.44
57248;BME280;55809;46.618;10.764;2022-09-29T02:18:21;91331.38;;;10.57;78.71
57248;BME280;55809;46.618;10.764;2022-09-29T02:20:49;91334.81;;;10.57;78.85
57248;BME280;55809;46.618;10.764;2022-09-29T02:23:16;91322.88;;;10.46;79.10
57248;BME280;55809;46.618;10.764;2022-09-29T02:25:45;91304.44;;;10.44;79.12
57248;BME280;55809;46.618;10.764;2022-09-29T02:28:14;91290.75;;;10.39;79.00
57248;BME280;55809;46.618;10.764;2022-09-29T02:30:42;91288.63;;;10.33;78.96
57248;BME280;55809;46.618;10.764;2022-09-29T02:33:19;91276.88;;;10.15;78.86
57248;BME280;55809;46.618;10.764;2022-09-29T02:35:56;91299.06;;;10.19;78.56
57248;BME280;55809;46.618;10.764;2022-09-29T02:38:30;91293.81;;;10.15;78.18
57248;BME280;55809;46.618;10.764;2022-09-29T02:41:07;91298.44;;;10.15;78.17
57248;BME280;55809;46.618;10.764;2022-09-29T02:43:48;91306.84;;;10.17;77.66
57248;BME280;55809;46.618;10.764;2022-09-29T02:46:32;91310.09;;;10.12;77.93
57248;BME280;55809;46.618;10.764;2022-09-29T02:49:24;91322.06;;;10.10;77.65
57248;BME280;55809;46.618;10.764;2022-09-29T02:51:54;91328.75;;;10.06;77.90
57248;BME280;55809;46.618;10.764;2022-09-29T02:54:41;91325.53;;;9.98;77.85
57248;BME280;55809;46.618;10.764;2022-09-29T02:57:18;91322.09;;;9.98;78.04
57248;BME280;55809;46.618;10.764;2022-09-29T02:59:53;91317.97;;;9.93;78.59
57248;BME280;55809;46.618;10.764;2022-09-29T03:02:23;91324.88;;;10.07;78.55
57248;BME280;55809;46.618;10.764;2022-09-29T03:04:52;91323.56;;;10.12;78.59
57248;BME280;55809;46.618;10.764;2022-09-29T03:07:20;91296.88;;;9.92;78.98
57248;BME280;55809;46.618;10.764;2022-09-29T03:09:47;91322.06;;;10.10;79.09
57248;BME280;55809;46.618;10.764;2022-09-29T03:12:14;91313.03;;;10.04;79.64
57248;BME280;55809;46.618;10.764;2022-09-29T03:14:42;91314.31;;;10.00;79.83
57248;BME280;55809;46.618;10.764;2022-09-29T03:17:12;91303.66;;;9.96;79.60
57248;BME280;55809;46.618;10.764;2022-09-29T03:19:42;91304.22;;;9.91;78.96
57248;BME280;55809;46.618;10.764;2022-09-29T03:22:10;91304.50;;;9.93;79.06
57248;BME280;55809;46.618;10.764;2022-09-29T03:24:37;91309.47;;;9.95;78.77
57248;BME280;55809;46.618;10.764;2022-09-29T03:27:06;91322.41;;;10.00;78.20
57248;BME280;55809;46.618;10.764;2022-09-29T03:29:35;91326.28;;;9.99;78.07
57248;BME280;55809;46.618;10.764;2022-09-29T03:32:05;91335.56;;;9.98;78.54
57248;BME280;55809;46.618;10.764;2022-09-29T03:34:35;91329.00;;;9.60;79.66
57248;BME280;55809;46.618;10.764;2022-09-29T03:37:03;91350.13;;;9.75;79.70
57248;BME280;55809;46.618;10.764;2022-09-29T03:39:35;91354.44;;;9.72;80.46
57248;BME280;55809;46.618;10.764;2022-09-29T03:42:07;91365.22;;;9.72;80.78
57248;BME280;55809;46.618;10.764;2022-09-29T03:44:34;91353.34;;;9.70;81.08
57248;BME280;55809;46.618;10.764;2022-09-29T03:47:01;91350.78;;;9.66;80.53
57248;BME280;55809;46.618;10.764;2022-09-29T03:49:28;91346.56;;;9.78;80.38
57248;BME280;55809;46.618;10.764;2022-09-29T03:51:55;91353.81;;;9.81;80.41
57248;BME280;55809;46.618;10.764;2022-09-29T03:54:22;91347.97;;;9.82;80.26
57248;BME280;55809;46.618;10.764;2022-09-29T03:56:53;91347.00;;;9.76;80.20
57248;BME280;55809;46.618;10.764;2022-09-29T03:59:23;91354.84;;;9.83;79.99
57248;BME280;55809;46.618;10.764;2022-09-29T04:01:49;91320.06;;;9.63;79.67
57248;BME280;55809;46.618;10.764;2022-09-29T04:04:16;91351.31;;;9.86;79.38
57248;BME280;55809;46.618;10.764;2022-09-29T04:06:46;91351.09;;;9.94;79.61
57248;BME280;55809;46.618;10.764;2022-09-29T04:09:12;91346.78;;;9.96;79.39
57248;BME280;55809;46.618;10.764;2022-09-29T04:11:39;91341.06;;;9.94;79.85
57248;BME280;55809;46.618;10.764;2022-09-29T04:14:08;91343.88;;;9.91;80.24
57248;BME280;55809;46.618;10.764;2022-09-29T04:16:35;91337.41;;;9.88;79.83
57248;BME280;55809;46.618;10.764;2022-09-29T04:19:02;91338.50;;;9.91;79.54
57248;BME280;55809;46.618;10.764;2022-09-29T04:21:29;91329.31;;;9.88;79.24
57248;BME280;55809;46.618;10.764;2022-09-29T04:23:58;91341.81;;;9.82;79.45
57248;BME280;55809;46.618;10.764;2022-09-29T04:26:25;91302.50;;;9.59;78.65
57248;BME280;55809;46.618;10.764;2022-09-29T04:28:52;91325.03;;;9.78;79.13
57248;BME280;55809;46.618;10.764;2022-09-29T04:31:21;91345.03;;;9.90;79.35
57248;BME280;55809;46.618;10.764;2022-09-29T04:34:02;91343.78;;;9.81;79.65
57248;BME280;55809;46.618;10.764;2022-09-29T04:36:29;91347.56;;;9.84;79.33
57248;BME280;55809;46.618;10.764;2022-09-29T04:38:56;91347.84;;;9.86;79.25
57248;BME280;55809;46.618;10.764;2022-09-29T04:41:24;91331.56;;;9.77;79.38
57248;BME280;55809;46.618;10.764;2022-09-29T04:43:52;91351.41;;;9.83;79.35
57248;BME280;55809;46.618;10.764;2022-09-29T04:46:19;91344.41;;;9.85;79.31
57248;BME280;55809;46.618;10.764;2022-09-29T04:48:48;91352.81;;;9.88;79.19
57248;BME280;55809;46.618;10.764;2022-09-29T04:51:24;91350.03;;;9.91;79.43
57248;BME280;55809;46.618;10.764;2022-09-29T04:53:59;91350.78;;;9.92;79.51
57248;BME280;55809;46.618;10.764;2022-09-29T04:56:33;91336.78;;;9.84;79.70
57248;BME280;55809;46.618;10.764;2022-09-29T04:59:02;91356.38;;;9.97;79.38
57248;BME280;55809;46.618;10.764;2022-09-29T05:01:33;91355.19;;;9.98;79.16
57248;BME280;55809;46.618;10.764;2022-09-29T05:04:07;91348.28;;;9.97;79.16
57248;BME280;55809;46.618;10.764;2022-09-29T05:06:40;91346.97;;;10.02;78.81
57248;BME280;55809;46.618;10.764;2022-09-29T05:09:16;91352.16;;;10.09;79.13
57248;BME280;55809;46.618;10.764;2022-09-29T05:11:57;91355.06;;;10.02;79.09
57248;BME280;55809;46.618;10.764;2022-09-29T05:14:25;91352.81;;;10.00;79.24
57248;BME280;55809;46.618;10.764;2022-09-29T05:16:58;91353.69;;;9.97;79.71
57248;BME280;55809;46.618;10.764;2022-09-29T05:19:30;91351.84;;;9.94;79.82
57248;BME280;55809;46.618;10.764;2022-09-29T05:22:01;91360.81;;;9.91;79.08
57248;BME280;55809;46.618;10.764;2022-09-29T05:24:31;91360.91;;;9.88;79.17
57248;BME280;55809;46.618;10.764;2022-09-29T05:27:04;91366.59;;;9.90;79.20
57248;BME280;55809;46.618;10.764;2022-09-29T05:29:33;91366.09;;;9.95;78.88
57248;BME280;55809;46.618;10.764;2022-09-29T05:32:01;91369.06;;;9.97;79.24
57248;BME280;55809;46.618;10.764;2022-09-29T05:34:40;91368.53;;;10.02;79.30
57248;BME280;55809;46.618;10.764;2022-09-29T05:37:08;91364.34;;;10.01;79.69
57248;BME280;55809;46.618;10.764;2022-09-29T05:39:35;91366.59;;;10.02;78.76
57248;BME280;55809;46.618;10.764;2022-09-29T05:42:02;91369.19;;;9.93;78.71
57248;BME280;55809;46.618;10.764;2022-09-29T05:44:31;91367.16;;;9.97;78.64
57248;BME280;55809;46.618;10.764;2022-09-29T05:47:03;91355.63;;;9.84;79.31
57248;BME280;55809;46.618;10.764;2022-09-29T05:49:31;91372.66;;;9.94;80.23
57248;BME280;55809;46.618;10.764;2022-09-29T05:52:08;91371.56;;;10.04;79.22
57248;BME280;55809;46.618;10.764;2022-09-29T05:55:01;91371.56;;;9.78;80.07
57248;BME280;55809;46.618;10.764;2022-09-29T05:57:54;91377.38;;;9.77;80.85
57248;BME280;55809;46.618;10.764;2022-09-29T06:00:21;91365.44;;;9.65;81.69
57248;BME280;55809;46.618;10.764;2022-09-29T06:02:48;91376.84;;;9.82;81.89
57248;BME280;55809;46.618;10.764;2022-09-29T06:05:15;91376.75;;;9.85;81.87
57248;BME280;55809;46.618;10.764;2022-09-29T06:07:44;91379.97;;;9.93;81.38
57248;BME280;55809;46.618;10.764;2022-09-29T06:10:10;91385.25;;;9.97;81.39
57248;BME280;55809;46.618;10.764;2022-09-29T06:12:38;91388.28;;;9.99;81.08
57248;BME280;55809;46.618;10.764;2022-09-29T06:15:05;91390.56;;;10.00;80.76
57248;BME280;55809;46.618;10.764;2022-09-29T06:17:34;91372.56;;;9.97;80.38
57248;BME280;55809;46.618;10.764;2022-09-29T06:20:03;91388.59;;;10.14;81.34
57248;BME280;55809;46.618;10.764;2022-09-29T06:22:33;91378.75;;;10.20;80.06
57248;BME280;55809;46.618;10.764;2022-09-29T06:25:23;91382.88;;;10.24;79.85
57248;BME280;55809;46.618;10.764;2022-09-29T06:27:53;91376.19;;;10.29;79.56
57248;BME280;55809;46.618;10.764;2022-09-29T06:30:20;91348.91;;;10.14;79.85
57248;BME280;55809;46.618;10.764;2022-09-29T06:32:47;91341.47;;;10.18;80.71
57248;BME280;55809;46.618;10.764;2022-09-29T06:35:17;91365.84;;;10.40;80.54
57248;BME280;55809;46.618;10.764;2022-09-29T06:38:01;91365.16;;;10.49;80.03
57248;BME280;55809;46.618;10.764;2022-09-29T06:40:30;91370.31;;;10.56;80.14
57248;BME280;55809;46.618;10.764;2022-09-29T06:42:57;91372.00;;;10.63;79.15
57248;BME280;55809;46.618;10.764;2022-09-29T06:45:24;91371.16;;;10.66;79.27
57248;BME280;55809;46.618;10.764;2022-09-29T06:47:57;91377.63;;;10.68;78.38
57248;BME280;55809;46.618;10.764;2022-09-29T06:50:24;91367.44;;;10.72;77.70
57248;BME280;55809;46.618;10.764;2022-09-29T06:52:51;91369.59;;;10.77;77.03
57248;BME280;55809;46.618;10.764;2022-09-29T06:55:18;91376.19;;;10.76;77.60
57248;BME280;55809;46.618;10.764;2022-09-29T06:57:46;91377.38;;;10.75;78.29
57248;BME280;55809;46.618;10.764;2022-09-29T07:00:14;91369.59;;;10.77;79.47
57248;BME280;55809;46.618;10.764;2022-09-29T07:02:44;91382.22;;;10.80;80.04
57248;BME280;55809;46.618;10.764;2022-09-29T07:05:17;91384.06;;;10.84;80.13
57248;BME280;55809;46.618;10.764;2022-09-29T07:07:47;91382.81;;;10.97;78.27
57248;BME280;55809;46.618;10.764;2022-09-29T07:10:20;91388.34;;;10.94;78.89
57248;BME280;55809;46.618;10.764;2022-09-29T07:13:02;91381.97;;;10.88;79.28
57248;BME280;55809;46.618;10.764;2022-09-29T07:15:38;91380.25;;;10.94;80.24
57248;BME280;55809;46.618;10.764;2022-09-29T07:18:16;91372.81;;;10.85;80.86
57248;BME280;55809;46.618;10.764;2022-09-29T07:20:47;91373.25;;;10.84;80.61
57248;BME280;55809;46.618;10.764;2022-09-29T07:23:23;91375.84;;;10.87;80.40
57248;BME280;55809;46.618;10.764;2022-09-29T07:25:57;91373.88;;;10.88;80.61
57248;BME280;55809;46.618;10.764;2022-09-29T07:28:44;91368.25;;;10.95;80.61
57248;BME280;55809;46.618;10.764;2022-09-29T07:31:28;91370.38;;;11.00;80.63
57248;BME280;55809;46.618;10.764;2022-09-29T07:33:56;91376.41;;;11.04;81.01
57248;BME280;55809;46.618;10.764;2022-09-29T07:36:35;91375.72;;;11.13;80.78
57248;BME280;55809;46.618;10.764;2022-09-29T07:39:06;91371.72;;;11.17;79.65
57248;BME280;55809;46.618;10.764;2022-09-29T07:41:53;91374.72;;;11.19;79.30
57248;BME280;55809;46.618;10.764;2022-09-29T07:44:32;91378.66;;;11.27;79.99
57248;BME280;55809;46.618;10.764;2022-09-29T07:47:02;91369.25;;;11.32;78.78
57248;BME280;55809;46.618;10.764;2022-09-29T07:49:34;91392.25;;;11.37;78.16
57248;BME280;55809;46.618;10.764;2022-09-29T07:52:11;91394.38;;;11.42;77.90
57248;BME280;55809;46.618;10.764;2022-09-29T07:54:43;91394.25;;;11.45;77.41
57248;BME280;55809;46.618;10.764;2022-09-29T07:57:20;91396.88;;;11.58;76.83
57248;BME280;55809;46.618;10.764;2022-09-29T08:00:15;91377.72;;;11.65;76.95
57248;BME280;55809;46.618;10.764;2022-09-29T08:05:24;91332.00;;;11.49;76.24
57248;BME280;55809;46.618;10.764;2022-09-29T08:07:55;91311.41;;;11.51;76.22
57248;BME280;55809;46.618;10.764;2022-09-29T08:10:26;91263.94;;;11.32;75.54
57248;BME280;55809;46.618;10.764;2022-09-29T08:12:57;91316.91;;;11.70;75.59
57248;BME280;55809;46.618;10.764;2022-09-29T08:15:28;91336.94;;;11.82;75.88
57248;BME280;55809;46.618;10.764;2022-09-29T08:18:01;91353.09;;;11.94;75.70
57248;BME280;55809;46.618;10.764;2022-09-29T08:20:30;91361.06;;;12.07;75.02
57248;BME280;55809;46.618;10.764;2022-09-29T08:23:05;91319.94;;;11.72;74.98
57248;BME280;55809;46.618;10.764;2022-09-29T08:25:37;91283.78;;;11.47;75.46
57248;BME280;55809;46.618;10.764;2022-09-29T08:28:09;91354.13;;;11.97;74.21
57248;BME280;55809;46.618;10.764;2022-09-29T08:30:41;91354.47;;;12.08;73.46
57248;BME280;55809;46.618;10.764;2022-09-29T08:33:13;91291.09;;;11.69;72.93
57248;BME280;55809;46.618;10.764;2022-09-29T08:35:42;91361.72;;;12.20;72.56
57248;BME280;55809;46.618;10.764;2022-09-29T08:38:14;91369.72;;;12.24;70.71
57248;BME280;55809;46.618;10.764;2022-09-29T08:40:43;91389.72;;;12.36;70.75
57248;BME280;55809;46.618;10.764;2022-09-29T08:43:15;91293.63;;;11.63;70.38
57248;BME280;55809;46.618;10.764;2022-09-29T08:45:57;91362.63;;;12.17;71.02
57248;BME280;55809;46.618;10.764;2022-09-29T08:48:33;91293.50;;;11.76;70.56
57248;BME280;55809;46.618;10.764;2022-09-29T08:51:04;91355.66;;;12.07;70.61
57248;BME280;55809;46.618;10.764;2022-09-29T08:53:38;91296.78;;;11.71;70.10
57248;BME280;55809;46.618;10.764;2022-09-29T08:56:14;91353.69;;;11.99;70.38
57248;BME280;55809;46.618;10.764;2022-09-29T08:58:44;91300.38;;;11.68;70.41
57248;BME280;55809;46.618;10.764;2022-09-29T09:01:31;91301.16;;;11.68;70.13
57248;BME280;55809;46.618;10.764;2022-09-29T09:07:15;91272.16;;;11.69;68.99
57248;BME280;55809;46.618;10.764;2022-09-29T09:10:12;91356.78;;;12.28;69.15
57248;BME280;55809;46.618;10.764;2022-09-29T09:15:42;91360.09;;;12.32;68.92
57248;BME280;55809;46.618;10.764;2022-09-29T09:18:40;91337.09;;;12.18;68.62
57248;BME280;55809;46.618;10.764;2022-09-29T09:21:19;91359.72;;;12.71;67.04
57248;BME280;55809;46.618;10.764;2022-09-29T09:26:57;91329.00;;;12.28;69.19
57248;BME280;55809;46.618;10.764;2022-09-29T09:29:41;91336.78;;;12.26;69.50
57248;BME280;55809;46.618;10.764;2022-09-29T09:32:24;91345.22;;;12.28;69.31
57248;BME280;55809;46.618;10.764;2022-09-29T09:34:57;91326.56;;;12.11;69.25
57248;BME280;55809;46.618;10.764;2022-09-29T09:37:40;91349.88;;;12.36;69.25
57248;BME280;55809;46.618;10.764;2022-09-29T09:40:16;91275.91;;;12.12;68.34
57248;BME280;55809;46.618;10.764;2022-09-29T09:42:57;91327.84;;;12.65;67.51
57248;BME280;55809;46.618;10.764;2022-09-29T09:45:29;91338.53;;;12.97;65.46
57248;BME280;55809;46.618;10.764;2022-09-29T09:48:05;91341.38;;;13.21;64.60
57248;BME280;55809;46.618;10.764;2022-09-29T09:50:39;91357.03;;;13.26;65.14
57248;BME280;55809;46.618;10.764;2022-09-29T09:53:19;91344.69;;;13.25;65.07
57248;BME280;55809;46.618;10.764;2022-09-29T09:56:07;91333.41;;;13.26;65.90
57248;BME280;55809;46.618;10.764;2022-09-29T09:59:07;91337.47;;;13.40;64.40
57248;BME280;55809;46.618;10.764;2022-09-29T10:01:41;91318.34;;;13.16;64.62
57248;BME280;55809;46.618;10.764;2022-09-29T10:04:12;91295.50;;;12.89;65.57
57248;BME280;55809;46.618;10.764;2022-09-29T10:06:46;91302.84;;;13.07;66.42
57248;BME280;55809;46.618;10.764;2022-09-29T10:09:19;91303.91;;;13.01;65.55
57248;BME280;55809;46.618;10.764;2022-09-29T10:11:55;91278.97;;;12.69;65.98
57248;BME280;55809;46.618;10.764;2022-09-29T10:14:28;91278.94;;;12.60;66.79
57248;BME280;55809;46.618;10.764;2022-09-29T10:17:01;91272.78;;;12.50;67.38
57248;BME280;55809;46.618;10.764;2022-09-29T10:19:56;91373.44;;;13.13;67.60
57248;BME280;55809;46.618;10.764;2022-09-29T10:22:26;91380.19;;;12.99;67.91
57248;BME280;55809;46.618;10.764;2022-09-29T10:25:05;91377.50;;;12.90;68.97
57248;BME280;55809;46.618;10.764;2022-09-29T10:27:33;91367.72;;;12.83;71.47
57248;BME280;55809;46.618;10.764;2022-09-29T10:30:01;91369.53;;;13.14;72.41
57248;BME280;55809;46.618;10.764;2022-09-29T10:32:31;91366.50;;;13.12;72.09
57248;BME280;55809;46.618;10.764;2022-09-29T10:35:08;91370.72;;;13.22;72.11
57248;BME280;55809;46.618;10.764;2022-09-29T10:37:46;91373.28;;;13.26;72.81
57248;BME280;55809;46.618;10.764;2022-09-29T10:40:17;91348.00;;;13.20;71.68
57248;BME280;55809;46.618;10.764;2022-09-29T10:42:46;91370.84;;;13.55;73.10
57248;BME280;55809;46.618;10.764;2022-09-29T10:45:18;91365.41;;;13.65;72.56
57248;BME280;55809;46.618;10.764;2022-09-29T10:47:47;91360.56;;;13.78;71.75
57248;BME280;55809;46.618;10.764;2022-09-29T10:50:19;91356.59;;;13.88;70.08
57248;BME280;55809;46.618;10.764;2022-09-29T10:52:52;91330.47;;;13.57;71.79
57248;BME280;55809;46.618;10.764;2022-09-29T10:55:21;91354.22;;;13.81;72.20
57248;BME280;55809;46.618;10.764;2022-09-29T10:57:50;91352.00;;;13.70;73.40
57248;BME280;55809;46.618;10.764;2022-09-29T11:00:26;91342.19;;;13.73;73.63
57248;BME280;55809;46.618;10.764;2022-09-29T11:03:03;91346.72;;;13.76;73.55
57248;BME280;55809;46.618;10.764;2022-09-29T11:09:04;91345.19;;;13.75;74.21
57248;BME280;55809;46.618;10.764;2022-09-29T11:11:35;91344.91;;;13.73;73.44
57248;BME280;55809;46.618;10.764;2022-09-29T11:14:04;91344.34;;;13.59;72.79
57248;BME280;55809;46.618;10.764;2022-09-29T11:16:36;91349.47;;;13.48;74.00
57248;BME280;55809;46.618;10.764;2022-09-29T11:19:13;91342.38;;;13.60;73.63
57248;BME280;55809;46.618;10.764;2022-09-29T11:28:23;91323.81;;;13.77;72.96
57248;BME280;55809;46.618;10.764;2022-09-29T11:31:04;91318.03;;;13.84;75.72
57248;BME280;55809;46.618;10.764;2022-09-29T11:33:43;91327.47;;;13.98;73.98
57248;BME280;55809;46.618;10.764;2022-09-29T11:36:21;91319.31;;;14.07;72.78
57248;BME280;55809;46.618;10.764;2022-09-29T11:39:02;91319.03;;;14.05;72.43
57248;BME280;55809;46.618;10.764;2022-09-29T11:41:49;91319.13;;;14.11;73.34
57248;BME280;55809;46.618;10.764;2022-09-29T11:44:33;91317.63;;;14.10;73.32
57248;BME280;55809;46.618;10.764;2022-09-29T11:47:18;91299.69;;;14.12;73.56
57248;BME280;55809;46.618;10.764;2022-09-29T11:50:06;91303.81;;;14.31;74.37
57248;BME280;55809;46.618;10.764;2022-09-29T11:52:59;91258.13;;;14.06;74.22
57248;BME280;55809;46.618;10.764;2022-09-29T11:55:37;91298.50;;;14.37;74.20
57248;BME280;55809;46.618;10.764;2022-09-29T11:58:23;91292.72;;;14.44;73.29
57248;BME280;55809;46.618;10.764;2022-09-29T12:01:20;91298.53;;;14.28;72.21
57248;BME280;55809;46.618;10.764;2022-09-29T12:04:02;91296.78;;;14.25;74.06
57248;BME280;55809;46.618;10.764;2022-09-29T12:06:53;91289.31;;;14.35;73.29
57248;BME280;55809;46.618;10.764;2022-09-29T12:09:52;91281.22;;;14.25;72.74
57248;BME280;55809;46.618;10.764;2022-09-29T12:12:29;91255.41;;;14.06;72.50
57248;BME280;55809;46.618;10.764;2022-09-29T12:15:24;91260.03;;;14.15;74.46
57248;BME280;55809;46.618;10.764;2022-09-29T12:17:59;91270.38;;;14.25;72.67
57248;BME280;55809;46.618;10.764;2022-09-29T12:20:33;91282.91;;;14.23;75.72
57248;BME280;55809;46.618;10.764;2022-09-29T12:23:09;91272.44;;;14.30;71.41
57248;BME280;55809;46.618;10.764;2022-09-29T12:25:50;91275.81;;;14.25;72.12
57248;BME280;55809;46.618;10.764;2022-09-29T12:28:23;91276.16;;;14.18;72.51
57248;BME280;55809;46.618;10.764;2022-09-29T12:30:55;91268.63;;;14.13;73.72
57248;BME280;55809;46.618;10.764;2022-09-29T12:33:30;91238.13;;;13.94;73.99
57248;BME280;55809;46.618;10.764;2022-09-29T12:36:09;91269.72;;;14.06;73.36
57248;BME280;55809;46.618;10.764;2022-09-29T12:38:59;91267.53;;;13.96;73.54
57248;BME280;55809;46.618;10.764;2022-09-29T12:41:34;91262.72;;;13.91;74.92
57248;BME280;55809;46.618;10.764;2022-09-29T12:44:15;91247.13;;;13.76;74.11
57248;BME280;55809;46.618;10.764;2022-09-29T12:46:49;91265.56;;;13.96;74.22
57248;BME280;55809;46.618;10.764;2022-09-29T12:49:21;91274.63;;;13.93;73.34
57248;BME280;55809;46.618;10.764;2022-09-29T12:51:53;91271.03;;;13.87;73.79
57248;BME280;55809;46.618;10.764;2022-09-29T12:54:26;91243.72;;;13.67;73.79
57248;BME280;55809;46.618;10.764;2022-09-29T12:56:57;91262.00;;;13.81;73.23
57248;BME280;55809;46.618;10.764;2022-09-29T12:59:32;91273.34;;;13.79;75.84
57248;BME280;55809;46.618;10.764;2022-09-29T13:02:23;91275.00;;;13.77;75.57
57248;BME280;55809;46.618;10.764;2022-09-29T13:05:05;91282.81;;;13.75;75.58
57248;BME280;55809;46.618;10.764;2022-09-29T13:07:53;91277.31;;;13.60;75.88
57248;BME280;55809;46.618;10.764;2022-09-29T13:10:52;91280.53;;;13.49;75.96
57248;BME280;55809;46.618;10.764;2022-09-29T13:13:59;91282.94;;;13.38;76.26
57248;BME280;55809;46.618;10.764;2022-09-29T13:16:46;91270.78;;;13.33;77.02
57248;BME280;55809;46.618;10.764;2022-09-29T13:19:42;91278.91;;;13.33;78.47
57248;BME280;55809;46.618;10.764;2022-09-29T13:25:26;91295.31;;;13.21;79.61
57248;BME280;55809;46.618;10.764;2022-09-29T13:28:19;91306.47;;;13.13;78.14
57248;BME280;55809;46.618;10.764;2022-09-29T13:30:48;91301.06;;;12.95;79.45
57248;BME280;55809;46.618;10.764;2022-09-29T13:33:23;91306.47;;;12.86;80.26
57248;BME280;55809;46.618;10.764;2022-09-29T13:36:07;91301.69;;;12.81;82.17
57248;BME280;55809;46.618;10.764;2022-09-29T13:38:38;91314.00;;;12.82;82.88
57248;BME280;55809;46.618;10.764;2022-09-29T13:41:35;91314.16;;;12.78;83.29
57248;BME280;55809;46.618;10.764;2022-09-29T13:44:22;91307.53;;;12.79;85.85
57248;BME280;55809;46.618;10.764;2022-09-29T13:47:30;91312.19;;;12.70;87.10
57248;BME280;55809;46.618;10.764;2022-09-29T13:50:41;91317.91;;;12.62;88.15
57248;BME280;55809;46.618;10.764;2022-09-29T13:53:44;91308.88;;;12.56;89.15
57248;BME280;55809;46.618;10.764;2022-09-29T13:56:26;91305.72;;;12.58;89.08
57248;BME280;55809;46.618;10.764;2022-09-29T13:59:14;91309.50;;;12.60;88.67
57248;BME280;55809;46.618;10.764;2022-09-29T14:02:18;91317.63;;;12.60;89.10